createdAt,value
2024-01-10T00:00:14.606Z,63.72
2024-01-10T00:02:41.736Z,60.75
2024-01-10T00:07:38.502Z,34.38
2024-01-10T00:10:07.078Z,30.70
2024-01-10T00:12:37.643Z,34.25
2024-01-10T00:15:05.803Z,31.20
2024-01-10T00:17:33.794Z,38.55
2024-01-10T00:20:00.874Z,35.80
2024-01-10T00:22:33.338Z,32.65
2024-01-10T00:25:00.579Z,31.48
2024-01-10T00:27:29.188Z,31.60
2024-01-10T00:29:58.000Z,31.98
2024-01-10T00:32:25.127Z,32.17
2024-01-10T00:39:46.129Z,34.53
2024-01-10T00:42:13.146Z,32.22
2024-01-10T00:44:40.572Z,35.88
2024-01-10T00:47:07.669Z,36.10
2024-01-10T00:52:04.102Z,32.13
2024-01-10T00:54:31.465Z,33.90
2024-01-10T00:57:01.097Z,35.85
2024-01-10T00:59:28.183Z,34.75
2024-01-10T01:01:55.166Z,23.58
2024-01-10T01:04:22.265Z,27.23
2024-01-10T01:06:49.372Z,26.30
2024-01-10T01:11:44.034Z,30.20
2024-01-10T01:16:38.025Z,28.38
2024-01-10T01:19:05.258Z,23.90
2024-01-10T01:21:32.458Z,28.48
2024-01-10T01:23:59.540Z,28.13
2024-01-10T01:26:26.546Z,24.35
2024-01-10T01:28:55.898Z,25.70
2024-01-10T01:31:22.895Z,29.17
2024-01-10T01:33:52.135Z,27.23
2024-01-10T01:36:21.866Z,29.75
2024-01-10T01:38:52.141Z,32.17
2024-01-10T01:41:19.704Z,26.55
2024-01-10T01:43:47.019Z,30.52
2024-01-10T01:46:14.242Z,26.05
2024-01-10T01:51:10.264Z,29.35
2024-01-10T01:53:38.029Z,23.90
2024-01-10T01:56:09.341Z,21.83
2024-01-10T01:58:38.054Z,24.90
2024-01-10T02:01:06.657Z,23.65
2024-01-10T02:03:34.410Z,22.35
2024-01-10T02:06:04.972Z,22.90
2024-01-10T02:08:36.488Z,23.88
2024-01-10T02:11:04.653Z,23.15
2024-01-10T02:13:36.150Z,24.58
2024-01-10T02:16:06.877Z,28.77
2024-01-10T02:18:36.317Z,24.98
2024-01-10T02:21:03.967Z,22.27
2024-01-10T02:23:31.020Z,24.80
2024-01-10T02:25:58.208Z,25.45
2024-01-10T02:33:25.004Z,25.13
2024-01-10T02:35:52.072Z,24.45
2024-01-10T02:38:22.517Z,22.83
2024-01-10T02:40:52.189Z,23.92
2024-01-10T02:43:24.160Z,28.70
2024-01-10T02:45:51.393Z,24.67
2024-01-10T02:50:45.542Z,25.73
2024-01-10T02:53:13.229Z,24.10
2024-01-10T02:55:44.178Z,24.23
2024-01-10T02:58:11.430Z,25.95
2024-01-10T03:03:06.240Z,23.38
2024-01-10T03:10:28.559Z,25.85
2024-01-10T03:12:57.811Z,29.10
2024-01-10T03:15:24.894Z,24.30
2024-01-10T03:17:52.065Z,24.15
2024-01-10T03:22:46.550Z,27.95
2024-01-10T03:25:16.092Z,27.60
2024-01-10T03:27:43.099Z,26.75
2024-01-10T03:30:10.724Z,23.52
2024-01-10T03:32:41.675Z,27.83
2024-01-10T03:35:09.930Z,23.85
2024-01-10T03:37:38.029Z,30.13
2024-01-10T03:40:05.344Z,30.05
2024-01-10T03:42:32.324Z,28.65
2024-01-10T03:45:00.231Z,31.17
2024-01-10T03:47:27.600Z,26.50
2024-01-10T03:49:54.578Z,27.23
2024-01-10T03:52:24.250Z,27.63
2024-01-10T03:54:51.290Z,25.58
2024-01-10T03:57:18.419Z,30.98
2024-01-10T04:02:14.743Z,27.65
2024-01-10T04:04:42.083Z,32.20
2024-01-10T04:07:09.838Z,34.65
2024-01-10T04:09:37.085Z,32.22
2024-01-10T04:12:04.449Z,29.80
2024-01-10T04:14:31.523Z,31.05
2024-01-10T04:17:00.731Z,30.40
2024-01-10T04:19:27.789Z,30.23
2024-01-10T04:21:54.917Z,30.05
2024-01-10T04:24:21.907Z,28.23
2024-01-10T04:26:50.089Z,30.25
2024-01-10T04:29:17.416Z,28.13
2024-01-10T04:31:44.782Z,33.67
2024-01-10T04:34:12.444Z,33.75
2024-01-10T04:36:39.698Z,31.85
2024-01-10T04:39:10.278Z,29.85
2024-01-10T04:41:37.261Z,32.10
2024-01-10T04:44:07.096Z,30.67
2024-01-10T04:46:34.917Z,31.55
2024-01-10T04:49:04.484Z,32.72
2024-01-10T04:51:33.046Z,31.27
2024-01-10T04:54:02.838Z,31.00
2024-01-10T04:56:30.130Z,31.48
2024-01-10T04:58:57.357Z,33.03
2024-01-10T05:01:27.537Z,35.58
2024-01-10T05:03:54.635Z,28.52
2024-01-10T05:06:23.757Z,28.00
2024-01-10T05:08:50.855Z,30.02
2024-01-10T05:11:20.406Z,34.72
2024-01-10T05:13:50.383Z,34.30
2024-01-10T05:16:18.370Z,28.52
2024-01-10T05:18:46.978Z,32.33
2024-01-10T05:21:14.285Z,32.35
2024-01-10T05:23:44.260Z,30.25
2024-01-10T05:26:11.566Z,31.67
2024-01-10T05:33:33.445Z,32.65
2024-01-10T05:38:29.875Z,31.10
2024-01-10T05:40:59.501Z,33.25
2024-01-10T05:43:26.679Z,34.55
2024-01-10T05:48:23.362Z,31.00
2024-01-10T05:50:52.605Z,33.72
2024-01-10T05:53:19.789Z,33.38
2024-01-10T05:58:16.154Z,32.72
2024-01-10T06:00:43.547Z,36.40
2024-01-10T06:03:15.267Z,34.92
2024-01-10T06:05:46.921Z,34.92
2024-01-10T06:08:15.292Z,41.47
2024-01-10T06:10:42.628Z,36.85
2024-01-10T06:15:42.877Z,36.65
2024-01-10T06:18:10.245Z,31.42
2024-01-10T06:20:39.927Z,37.97
2024-01-10T06:23:11.820Z,38.88
2024-01-10T06:25:38.929Z,35.95
2024-01-10T06:33:02.716Z,32.28
2024-01-10T06:35:30.387Z,34.67
2024-01-10T06:37:57.420Z,35.10
2024-01-10T06:40:26.823Z,38.13
2024-01-10T06:42:53.826Z,35.72
2024-01-10T06:45:22.872Z,36.95
2024-01-10T06:47:49.903Z,35.00
2024-01-10T06:52:50.917Z,38.53
2024-01-10T06:55:19.516Z,41.45
2024-01-10T06:57:49.851Z,41.33
2024-01-10T07:00:21.344Z,42.03
2024-01-10T07:02:51.183Z,37.13
2024-01-10T07:05:18.335Z,35.67
2024-01-10T07:07:45.300Z,45.72
2024-01-10T07:10:12.823Z,44.55
2024-01-10T07:12:42.555Z,40.65
2024-01-10T07:15:10.139Z,37.20
2024-01-10T07:17:37.134Z,37.47
2024-01-10T07:22:33.929Z,34.67
2024-01-10T07:25:09.147Z,39.45
2024-01-10T07:27:43.807Z,35.47
2024-01-10T07:30:19.817Z,38.58
2024-01-10T07:32:47.565Z,38.35
2024-01-10T07:35:15.353Z,44.90
2024-01-10T07:37:45.530Z,38.67
2024-01-10T07:40:15.425Z,38.15
2024-01-10T07:42:46.706Z,37.67
2024-01-10T07:45:16.073Z,35.38
2024-01-10T07:47:43.091Z,40.15
2024-01-10T07:50:11.578Z,35.17
2024-01-10T07:52:38.740Z,35.40
2024-01-10T07:57:37.872Z,32.50
2024-01-10T08:00:12.036Z,35.58
2024-01-10T08:02:40.366Z,33.97
2024-01-10T08:05:11.789Z,33.72
2024-01-10T08:07:42.204Z,35.63
2024-01-10T08:10:11.380Z,41.47
2024-01-10T08:12:45.377Z,34.13
2024-01-10T08:15:15.765Z,33.33
2024-01-10T08:17:44.638Z,40.50
2024-01-10T08:20:12.345Z,40.55
2024-01-10T08:22:41.988Z,35.03
2024-01-10T08:25:11.260Z,35.85
2024-01-10T08:27:42.105Z,36.08
2024-01-10T08:30:12.888Z,40.83
2024-01-10T08:32:44.866Z,42.92
2024-01-10T08:35:14.491Z,37.28
2024-01-10T08:37:44.393Z,38.42
2024-01-10T08:40:16.439Z,39.20
2024-01-10T08:42:46.641Z,40.70
2024-01-10T08:45:16.239Z,39.80
2024-01-10T08:47:45.425Z,38.00
2024-01-10T08:50:14.846Z,37.40
2024-01-10T08:52:44.655Z,42.45
2024-01-10T08:55:14.583Z,39.22
2024-01-10T08:57:44.106Z,36.67
2024-01-10T09:00:13.501Z,37.97
2024-01-10T09:02:43.346Z,38.65
2024-01-10T09:05:11.814Z,36.45
2024-01-10T09:07:39.680Z,31.67
2024-01-10T09:10:09.718Z,30.90
2024-01-10T09:12:39.516Z,30.00
2024-01-10T09:15:14.245Z,32.28
2024-01-10T09:17:44.475Z,36.53
2024-01-10T09:20:12.669Z,32.60
2024-01-10T09:22:45.299Z,30.83
2024-01-10T09:25:13.412Z,32.47
2024-01-10T09:27:45.375Z,30.10
2024-01-10T09:30:13.447Z,33.17
2024-01-10T09:32:43.318Z,36.03
2024-01-10T09:35:10.405Z,37.28
2024-01-10T09:37:40.341Z,32.42
2024-01-10T09:40:10.561Z,31.65
2024-01-10T09:42:39.670Z,32.97
2024-01-10T09:45:11.079Z,33.13
2024-01-10T09:47:41.002Z,32.90
2024-01-10T09:50:08.582Z,33.40
2024-01-10T09:52:42.820Z,32.72
2024-01-10T09:55:11.006Z,33.72
2024-01-10T09:57:40.814Z,30.33
2024-01-10T10:00:12.273Z,33.33
2024-01-10T10:02:43.830Z,33.47
2024-01-10T10:05:16.655Z,30.52
2024-01-10T10:07:48.301Z,32.50
2024-01-10T10:10:16.851Z,34.55
2024-01-10T10:12:48.373Z,37.97
2024-01-10T10:15:17.360Z,34.72
2024-01-10T10:17:49.283Z,35.58
2024-01-10T10:20:38.674Z,35.45
2024-01-10T10:23:11.981Z,38.38
2024-01-10T10:25:48.546Z,35.83
2024-01-10T10:28:25.296Z,36.85
2024-01-10T10:30:59.163Z,37.55
2024-01-10T10:33:26.364Z,42.58
2024-01-10T10:36:01.871Z,32.17
2024-01-10T10:38:28.905Z,38.97
2024-01-10T10:43:24.366Z,33.83
2024-01-10T10:45:52.641Z,38.72
2024-01-10T10:48:24.145Z,38.75
2024-01-10T10:51:18.749Z,32.92
2024-01-10T10:53:49.624Z,33.85
2024-01-10T10:56:21.297Z,29.38
2024-01-10T10:58:50.102Z,35.15
2024-01-10T11:01:17.973Z,32.63
2024-01-10T11:03:48.335Z,35.95
2024-01-10T11:06:18.936Z,37.13
2024-01-10T11:08:52.054Z,34.03
2024-01-10T11:12:03.727Z,37.60
2024-01-10T11:14:37.194Z,32.75
2024-01-10T11:17:45.757Z,35.55
2024-01-10T11:20:24.854Z,31.85
2024-01-10T11:23:00.793Z,34.83
2024-01-10T11:25:30.909Z,38.80
2024-01-10T11:28:03.559Z,34.97
2024-01-10T11:30:43.772Z,35.75
2024-01-10T11:33:26.393Z,37.20
2024-01-10T11:36:16.820Z,34.75
2024-01-10T11:38:56.069Z,33.60
2024-01-10T11:41:34.207Z,31.80
2024-01-10T11:44:15.012Z,36.92
2024-01-10T11:46:42.947Z,35.15
2024-01-10T11:49:20.072Z,37.00
2024-01-10T11:51:49.938Z,36.78
2024-01-10T11:54:38.902Z,37.05
2024-01-10T11:57:25.253Z,36.35
2024-01-10T12:00:00.663Z,36.50
2024-01-10T12:02:31.155Z,34.90
2024-01-10T12:05:01.173Z,35.10
2024-01-10T12:09:56.257Z,36.35
2024-01-10T12:12:25.943Z,39.72
2024-01-10T12:14:53.099Z,40.42
2024-01-10T12:17:20.705Z,32.75
2024-01-10T12:19:50.413Z,34.72
2024-01-10T12:22:22.671Z,35.78
2024-01-10T12:24:53.452Z,38.70
2024-01-10T12:27:22.322Z,35.78
2024-01-10T12:29:54.883Z,33.53
2024-01-10T12:32:25.455Z,39.20
2024-01-10T12:35:05.531Z,44.80
2024-01-10T12:37:32.968Z,35.88
2024-01-10T12:42:29.605Z,34.90
2024-01-10T12:45:00.313Z,41.05
2024-01-10T12:47:27.663Z,39.50
2024-01-10T12:49:55.233Z,33.58
2024-01-10T12:52:23.872Z,30.98
2024-01-10T12:54:54.879Z,33.55
2024-01-10T12:57:22.065Z,38.42
2024-01-10T12:59:49.504Z,32.30
2024-01-10T13:02:16.492Z,32.85
2024-01-10T13:04:43.516Z,36.65
2024-01-10T13:07:10.670Z,33.30
2024-01-10T13:09:42.773Z,34.50
2024-01-10T13:12:10.077Z,35.30
2024-01-10T13:17:08.698Z,42.30
2024-01-10T13:19:39.197Z,37.55
2024-01-10T13:22:08.793Z,31.05
2024-01-10T13:24:36.451Z,32.35
2024-01-10T13:27:03.457Z,32.30
2024-01-10T13:29:30.525Z,31.88
2024-01-10T13:32:00.036Z,32.80
2024-01-10T13:36:54.010Z,36.50
2024-01-10T13:39:23.076Z,38.08
2024-01-10T13:41:50.135Z,41.45
2024-01-10T13:44:17.783Z,34.67
2024-01-10T13:46:49.102Z,36.20
2024-01-10T13:49:21.366Z,32.78
2024-01-10T13:51:50.592Z,38.22
2024-01-10T13:54:17.612Z,38.15
2024-01-10T13:56:44.538Z,34.45
2024-01-10T13:59:11.529Z,35.67
2024-01-10T14:01:38.598Z,36.15
2024-01-10T14:04:08.340Z,31.27
2024-01-10T14:06:35.399Z,40.22
2024-01-10T14:09:03.415Z,37.67
2024-01-10T14:11:30.534Z,37.35
2024-01-10T14:14:05.006Z,32.10
2024-01-10T14:16:32.309Z,33.47
2024-01-10T14:19:02.015Z,34.72
2024-01-10T14:21:29.173Z,34.17
2024-01-10T14:23:56.138Z,37.20
2024-01-10T14:26:23.784Z,31.58
2024-01-10T14:28:54.040Z,31.42
2024-01-10T14:31:29.853Z,32.20
2024-01-10T14:34:09.983Z,30.92
2024-01-10T14:36:40.281Z,35.15
2024-01-10T14:39:08.666Z,37.67
2024-01-10T14:41:35.644Z,33.83
2024-01-10T14:44:05.051Z,38.55
2024-01-10T14:46:32.265Z,30.48
2024-01-10T14:48:59.303Z,85.53
2024-01-10T14:51:28.607Z,38.05
2024-01-10T14:53:55.517Z,36.38
2024-01-10T14:56:22.648Z,34.75
2024-01-10T14:58:51.835Z,33.13
2024-01-10T15:01:21.278Z,34.85
2024-01-10T15:03:48.219Z,34.50
2024-01-10T15:06:15.494Z,36.83
2024-01-10T15:08:43.000Z,36.10
2024-01-10T15:11:12.285Z,31.05
2024-01-10T15:13:43.903Z,32.97
2024-01-10T15:16:13.876Z,33.38
2024-01-10T15:18:42.957Z,34.25
2024-01-10T15:21:09.934Z,31.02
2024-01-10T15:23:40.040Z,42.78
2024-01-10T15:26:08.053Z,38.88
2024-01-10T15:28:35.029Z,36.13
2024-01-10T15:31:01.999Z,32.55
2024-01-10T15:33:35.178Z,35.22
2024-01-10T15:36:04.705Z,35.40
2024-01-10T15:38:34.247Z,35.55
2024-01-10T15:41:02.862Z,32.00
2024-01-10T15:43:32.150Z,33.60
2024-01-10T15:45:59.292Z,30.65
2024-01-10T15:48:26.227Z,38.60
2024-01-10T15:50:53.452Z,33.50
2024-01-10T15:53:23.673Z,31.40
2024-01-10T15:55:53.559Z,36.70
2024-01-10T15:58:27.945Z,31.38
2024-01-10T16:00:59.309Z,38.05
2024-01-10T16:03:26.376Z,36.75
2024-01-10T16:05:53.689Z,33.22
2024-01-10T16:08:21.136Z,35.28
2024-01-10T16:10:48.413Z,35.58
2024-01-10T16:15:44.447Z,41.38
2024-01-10T16:18:11.445Z,40.15
2024-01-10T16:20:41.643Z,40.80
2024-01-10T16:23:08.707Z,42.42
2024-01-10T16:30:29.996Z,43.97
2024-01-10T16:33:02.851Z,53.30
2024-01-10T16:35:29.993Z,41.72
2024-01-10T16:37:59.515Z,45.88
2024-01-10T16:40:29.164Z,40.00
2024-01-10T16:42:56.510Z,37.05
2024-01-10T16:47:53.226Z,40.80
2024-01-10T16:50:22.612Z,39.65
2024-01-10T16:52:49.834Z,44.33
2024-01-10T16:55:21.583Z,41.70
2024-01-10T16:57:50.721Z,46.25
2024-01-10T17:00:18.286Z,45.92
2024-01-10T17:02:45.379Z,40.10
2024-01-10T17:05:12.452Z,37.42
2024-01-10T17:07:41.881Z,40.53
2024-01-10T17:10:09.186Z,38.45
2024-01-10T17:15:05.770Z,39.60
2024-01-10T17:17:32.804Z,37.30
2024-01-10T17:20:02.359Z,39.63
2024-01-10T17:22:57.536Z,37.47
2024-01-10T17:25:25.441Z,37.85
2024-01-10T17:27:55.054Z,40.35
2024-01-10T17:30:22.164Z,35.00
2024-01-10T17:32:49.850Z,44.72
2024-01-10T17:35:18.193Z,41.00
2024-01-10T17:37:46.668Z,42.20
2024-01-10T17:40:15.006Z,41.33
2024-01-10T17:42:42.143Z,43.85
2024-01-10T17:45:10.232Z,41.58
2024-01-10T17:47:37.920Z,38.03
2024-01-10T17:50:05.988Z,41.85
2024-01-10T17:52:33.127Z,37.17
2024-01-10T17:55:00.511Z,39.05
2024-01-10T17:57:30.394Z,43.78
2024-01-10T17:59:58.305Z,46.25
2024-01-10T18:02:28.133Z,41.83
2024-01-10T18:04:55.159Z,43.80
2024-01-10T18:07:22.232Z,46.80
2024-01-10T18:09:51.687Z,44.00
2024-01-10T18:12:18.719Z,40.42
2024-01-10T18:14:46.448Z,38.53
2024-01-10T18:17:16.167Z,47.80
2024-01-10T18:19:45.665Z,39.05
2024-01-10T18:22:12.586Z,40.83
2024-01-10T18:24:41.830Z,37.75
2024-01-10T18:27:11.029Z,41.65
2024-01-10T18:29:38.013Z,38.95
2024-01-10T18:32:09.870Z,39.08
2024-01-10T18:34:39.691Z,36.28
2024-01-10T18:37:07.295Z,42.17
2024-01-10T18:39:39.913Z,44.80
2024-01-10T18:42:07.842Z,48.00
2024-01-10T18:44:40.104Z,42.47
2024-01-10T18:47:09.440Z,42.40
2024-01-10T18:49:39.089Z,40.85
2024-01-10T18:52:08.828Z,39.80
2024-01-10T18:54:38.039Z,38.15
2024-01-10T18:57:09.505Z,36.83
2024-01-10T18:59:39.012Z,39.50
2024-01-10T19:02:08.529Z,41.60
2024-01-10T19:04:35.642Z,40.13
2024-01-10T19:07:03.874Z,39.28
2024-01-10T19:09:31.174Z,41.85
2024-01-10T19:14:27.456Z,39.58
2024-01-10T19:16:54.620Z,93.45
2024-01-10T19:19:23.953Z,44.38
2024-01-10T19:21:57.007Z,41.15
2024-01-10T19:24:26.489Z,45.78
2024-01-10T19:26:57.288Z,44.55
2024-01-10T19:29:26.305Z,48.95
2024-01-10T19:31:55.519Z,43.72
2024-01-10T19:34:24.055Z,44.22
2024-01-10T19:36:51.267Z,41.55
2024-01-10T19:39:18.228Z,40.92
2024-01-10T19:41:45.256Z,44.47
2024-01-10T19:44:12.417Z,42.17
2024-01-10T19:46:41.677Z,49.42
2024-01-10T19:49:11.235Z,47.33
2024-01-10T19:51:38.226Z,48.80
2024-01-10T19:54:05.408Z,50.00
2024-01-10T19:59:03.369Z,40.35
2024-01-10T20:01:39.124Z,43.75
2024-01-10T20:04:06.407Z,45.80
2024-01-10T20:06:33.979Z,48.15
2024-01-10T20:09:03.230Z,45.78
2024-01-10T20:11:30.246Z,45.03
2024-01-10T20:13:57.311Z,49.42
2024-01-10T20:16:24.314Z,47.00
2024-01-10T20:18:54.583Z,45.47
2024-01-10T20:21:26.110Z,51.30
2024-01-10T20:23:53.177Z,45.88
2024-01-10T20:26:20.875Z,64.60
2024-01-10T20:28:47.860Z,108.45
2024-01-10T20:31:14.950Z,72.78
2024-01-10T20:33:42.122Z,62.80
2024-01-10T20:38:36.808Z,47.75
2024-01-10T20:41:04.376Z,45.15
2024-01-10T20:43:31.431Z,44.17
2024-01-10T20:45:58.411Z,41.50
2024-01-10T20:48:25.505Z,41.75
2024-01-10T20:50:57.254Z,44.75
2024-01-10T20:53:27.373Z,43.10
2024-01-10T20:55:54.503Z,39.78
2024-01-10T20:58:24.648Z,42.17
2024-01-10T21:00:53.923Z,40.55
2024-01-10T21:03:21.161Z,42.13
2024-01-10T21:05:53.451Z,43.90
2024-01-10T21:08:20.712Z,43.83
2024-01-10T21:10:52.612Z,45.70
2024-01-10T21:13:19.608Z,42.78
2024-01-10T21:15:46.632Z,42.35
2024-01-10T21:18:16.754Z,39.80
2024-01-10T21:20:44.011Z,40.65
2024-01-10T21:25:42.643Z,37.92
2024-01-10T21:28:09.920Z,41.70
2024-01-10T21:30:39.081Z,44.03
2024-01-10T21:33:07.555Z,38.25
2024-01-10T21:35:36.772Z,38.92
2024-01-10T21:38:04.010Z,41.95
2024-01-10T21:43:05.519Z,38.65
2024-01-10T21:45:34.862Z,41.60
2024-01-10T21:48:02.858Z,44.83
2024-01-10T21:50:32.075Z,45.47
2024-01-10T21:52:59.628Z,45.58
2024-01-10T21:55:26.568Z,45.60
2024-01-10T21:57:58.336Z,47.00
2024-01-10T22:00:26.509Z,46.08
2024-01-10T22:02:57.169Z,45.83
2024-01-10T22:05:26.233Z,48.42
2024-01-10T22:07:53.678Z,47.88
2024-01-10T22:10:23.008Z,45.80
2024-01-10T22:12:50.108Z,47.20
2024-01-10T22:15:17.618Z,51.67
2024-01-10T22:17:46.883Z,50.13
2024-01-10T22:20:14.017Z,48.80
2024-01-10T22:22:41.964Z,53.97
2024-01-10T22:25:13.419Z,50.00
2024-01-10T22:27:40.356Z,50.67
2024-01-10T22:30:11.517Z,52.42
2024-01-10T22:32:39.321Z,47.58
2024-01-10T22:35:06.871Z,49.92
2024-01-10T22:37:33.905Z,52.25
2024-01-10T22:40:01.012Z,46.92
2024-01-10T22:42:30.512Z,50.08
2024-01-10T22:44:58.559Z,48.08
2024-01-10T22:47:30.226Z,47.30
2024-01-10T22:49:59.472Z,50.40
2024-01-10T22:52:32.002Z,52.63
2024-01-10T22:54:59.182Z,52.88
2024-01-10T23:09:41.181Z,57.30
2024-01-10T23:12:10.705Z,53.30
2024-01-10T23:14:37.701Z,56.53
2024-01-10T23:17:08.865Z,61.78
2024-01-10T23:19:36.606Z,61.42
2024-01-10T23:24:40.862Z,57.13
2024-01-10T23:27:10.781Z,54.97
2024-01-10T23:29:41.662Z,59.08
2024-01-10T23:32:10.929Z,55.97
2024-01-10T23:34:38.285Z,55.55
2024-01-10T23:37:07.310Z,58.53
2024-01-10T23:39:36.620Z,65.43
2024-01-10T23:42:06.129Z,62.05
2024-01-10T23:44:35.618Z,54.83
2024-01-10T23:47:02.636Z,65.47
2024-01-10T23:49:33.362Z,60.05
2024-01-10T23:52:00.497Z,61.60
2024-01-10T23:54:28.429Z,62.50
2024-01-10T23:56:55.433Z,58.88
2024-01-10T23:59:24.936Z,53.53
